Time;durP1;ratioP1;P1;durP2;ratioP2;P2;SDS_P1;SDS_P2;PMS_P1;PMS_P2;Temp;Humidity;BMP_temperature;BMP_pressure;BME280_temperature;BME280_humidity;BME280_pressure;Samples;Min_cycle;Max_cycle;Signal;HPM_P1;HPM_P2
2022/02/16 00:00:46;;;;;;;32.93;20.43;;;;;;;1.48;99.04;101117.09;5071845;28;20037;-71
2022/02/16 00:03:11;;;;;;;34.33;20.03;;;;;;;1.97;98.68;101173.72;5071525;28;20395;-70
2022/02/16 00:05:37;;;;;;;33.73;21.57;;;;;;;2.03;98.36;101180.25;5071285;28;20058;-70
2022/02/16 00:08:03;;;;;;;32.70;20.27;;;;;;;1.94;97.18;101167.66;5071751;28;20052;-70
2022/02/16 00:10:29;;;;;;;32.67;20.47;;;;;;;1.82;97.71;101170.81;5071032;28;20056;-70
2022/02/16 00:12:55;;;;;;;36.93;21.13;;;;;;;1.70;97.90;101137.59;5071055;28;20029;-70
2022/02/16 00:15:20;;;;;;;34.27;21.70;;;;;;;1.96;96.97;101157.56;5071039;28;20028;-71
2022/02/16 00:17:46;;;;;;;33.87;19.17;;;;;;;1.68;95.68;101116.22;5071435;28;20039;-70
2022/02/16 00:20:13;;;;;;;31.93;19.00;;;;;;;1.85;97.11;101164.31;5070318;28;20028;-73
2022/02/16 00:22:38;;;;;;;31.47;19.40;;;;;;;1.86;97.64;101157.59;5070991;28;20066;-74
2022/02/16 00:25:06;;;;;;;34.77;20.10;;;;;;;1.94;99.25;101154.00;5071199;28;20103;-73
2022/02/16 00:27:32;;;;;;;29.13;18.50;;;;;;;1.75;100.00;101143.97;5071174;28;20029;-71
2022/02/16 00:29:57;;;;;;;33.23;19.80;;;;;;;1.31;100.00;101082.59;5071244;28;20170;-70
2022/02/16 00:32:22;;;;;;;31.70;19.67;;;;;;;1.71;100.00;101150.44;5071061;28;20153;-74
2022/02/16 00:34:48;;;;;;;28.73;17.90;;;;;;;1.87;100.00;101149.16;5070899;28;20032;-74
2022/02/16 00:37:13;;;;;;;37.83;19.60;;;;;;;1.65;100.00;101132.13;5070853;28;20037;-73
2022/02/16 00:39:39;;;;;;;33.30;19.00;;;;;;;1.80;100.00;101146.91;5070213;28;20033;-78
2022/02/16 00:42:04;;;;;;;32.03;20.40;;;;;;;1.83;100.00;101147.13;5070187;28;20021;-74
2022/02/16 00:44:30;;;;;;;33.23;19.30;;;;;;;1.22;100.00;101085.25;5070202;28;20025;-74
2022/02/16 00:46:55;;;;;;;32.80;19.87;;;;;;;1.32;100.00;101148.91;5070132;28;20533;-75
2022/02/16 00:49:21;;;;;;;40.50;24.33;;;;;;;1.28;100.00;101144.28;5070290;28;20024;-74
2022/02/16 00:51:47;;;;;;;45.27;26.80;;;;;;;0.92;100.00;101127.66;5070835;28;20376;-74
2022/02/16 00:54:12;;;;;;;51.57;33.23;;;;;;;0.91;100.00;101138.59;5070881;28;20115;-74
2022/02/16 00:56:40;;;;;;;52.60;30.77;;;;;;;0.75;100.00;101103.34;5070927;28;20165;-71
2022/02/16 00:59:06;;;;;;;53.97;33.50;;;;;;;0.87;100.00;101144.16;5070636;28;20118;-74
2022/02/16 01:01:31;;;;;;;51.07;32.33;;;;;;;0.71;100.00;101102.19;5070923;28;20113;-74
2022/02/16 01:03:57;;;;;;;50.80;32.23;;;;;;;1.03;100.00;101147.25;5070196;28;20492;-74
2022/02/16 01:06:22;;;;;;;48.50;31.90;;;;;;;0.89;100.00;101091.81;5070171;28;20082;-74
2022/02/16 01:08:48;;;;;;;49.40;30.17;;;;;;;1.25;100.00;101127.09;5070299;28;20033;-72
2022/02/16 01:11:14;;;;;;;45.30;25.00;;;;;;;1.35;100.00;101138.09;5244225;22;20023;-74
2022/02/16 01:13:39;;;;;;;49.53;26.77;;;;;;;1.36;100.00;101129.66;5030416;28;20044;-74
2022/02/16 01:16:05;;;;;;;73.73;27.80;;;;;;;1.21;100.00;101111.44;5031007;28;20026;-73
2022/02/16 01:18:31;;;;;;;74.00;28.67;;;;;;;1.07;100.00;101115.38;5030752;28;20064;-74
2022/02/16 01:20:56;;;;;;;50.87;25.47;;;;;;;1.00;100.00;101113.06;5030723;28;20034;-74
2022/02/16 01:23:21;;;;;;;55.70;21.40;;;;;;;0.85;100.00;101099.91;5030821;28;20104;-71
2022/02/16 01:25:47;;;;;;;60.50;22.00;;;;;;;0.85;100.00;101092.28;5030836;28;20033;-71
2022/02/16 01:28:12;;;;;;;99.10;24.10;;;;;;;0.94;100.00;101093.09;5030816;28;20017;-75
2022/02/16 01:30:38;;;;;;;137.83;23.73;;;;;;;1.13;100.00;101098.09;5030358;28;20032;-72
2022/02/16 01:33:04;;;;;;;93.13;25.27;;;;;;;1.27;100.00;101091.63;5034373;28;20022;-71
2022/02/16 01:35:29;;;;;;;91.73;23.00;;;;;;;1.15;100.00;101057.53;5034674;28;20392;-71
2022/02/16 01:37:55;;;;;;;144.67;23.53;;;;;;;1.09;100.00;101037.56;5034331;28;20025;-71
2022/02/16 01:40:20;;;;;;;123.63;26.13;;;;;;;1.47;100.00;101090.78;5034530;28;20032;-70
2022/02/16 01:42:46;;;;;;;68.13;20.10;;;;;;;1.55;100.00;101088.84;5034600;28;20422;-70
2022/02/16 01:45:12;;;;;;;170.90;26.37;;;;;;;1.49;100.00;101090.91;5034574;28;20033;-73
2022/02/16 01:47:38;;;;;;;147.80;26.50;;;;;;;1.30;100.00;101043.56;5034206;28;20149;-74
2022/02/16 01:50:06;;;;;;;165.73;25.93;;;;;;;1.47;100.00;101112.75;5034377;28;20057;-74
2022/02/16 01:52:32;;;;;;;195.83;25.60;;;;;;;1.56;100.00;101116.97;5034588;28;20364;-72
2022/02/16 01:54:58;;;;;;;119.17;23.77;;;;;;;1.60;100.00;101111.38;5034397;28;20056;-73
2022/02/16 01:57:24;;;;;;;104.80;23.67;;;;;;;1.77;100.00;101107.69;5034357;28;20043;-72
2022/02/16 01:59:50;;;;;;;156.03;26.83;;;;;;;1.80;100.00;101078.16;5034044;28;20061;-71
2022/02/16 02:02:16;;;;;;;133.33;23.97;;;;;;;1.77;100.00;101058.44;5034221;28;20502;-71
2022/02/16 02:04:41;;;;;;;177.00;26.17;;;;;;;2.07;100.00;101110.97;5034171;28;20390;-73
2022/02/16 02:07:07;;;;;;;209.77;27.27;;;;;;;1.93;100.00;101050.34;5033790;28;20454;-71
2022/02/16 02:09:32;;;;;;;79.60;21.80;;;;;;;2.04;100.00;101063.97;5034019;28;20026;-73
2022/02/16 02:11:59;;;;;;;129.40;24.43;;;;;;;2.09;100.00;101093.25;5033877;28;20049;-72
2022/02/16 02:14:24;;;;;;;52.90;22.83;;;;;;;1.99;100.00;101086.50;5034170;28;20045;-74
2022/02/16 02:16:50;;;;;;;139.83;24.57;;;;;;;2.01;100.00;101104.50;5033601;28;20033;-74
2022/02/16 02:19:15;;;;;;;39.43;16.77;;;;;;;1.88;100.00;101097.47;5033973;28;20468;-73
2022/02/16 02:21:44;;;;;;;113.97;21.87;;;;;;;1.78;100.00;101106.00;5033726;28;20029;-74
2022/02/16 02:24:10;;;;;;;54.03;20.92;;;;;;;1.75;100.00;101104.09;5033260;28;20045;-73
2022/02/16 02:26:35;;;;;;;111.80;23.27;;;;;;;1.75;100.00;101091.38;5033283;28;20072;-73
2022/02/16 02:29:01;;;;;;;67.83;20.60;;;;;;;1.72;100.00;101101.31;5033273;28;20121;-74
2022/02/16 02:31:38;;;;;;;127.70;24.20;;;;;;;1.60;100.00;101065.56;5032665;28;20113;-74
2022/02/16 02:34:04;;;;;;;122.90;26.30;;;;;;;1.83;100.00;101111.50;5033005;28;20030;-75
2022/02/16 02:36:30;;;;;;;148.77;24.43;;;;;;;1.80;100.00;101108.72;5032841;28;20032;-74
2022/02/16 02:38:55;;;;;;;173.93;24.53;;;;;;;1.71;100.00;101108.84;5032956;28;20391;-75
2022/02/16 02:41:22;;;;;;;158.73;27.10;;;;;;;1.71;100.00;101101.22;5045945;28;20531;-74
2022/02/16 02:43:48;;;;;;;109.43;23.37;;;;;;;1.80;100.00;101090.88;5044257;28;20488;-74
2022/02/16 02:46:15;;;;;;;132.60;25.80;;;;;;;1.78;100.00;101091.66;5031975;28;20546;-75
2022/02/16 02:48:42;;;;;;;51.67;22.43;;;;;;;1.66;100.00;101077.91;5032418;28;20117;-74
2022/02/16 02:51:07;;;;;;;77.83;21.50;;;;;;;1.55;100.00;101083.78;5032296;28;20037;-71
2022/02/16 02:53:34;;;;;;;115.83;27.37;;;;;;;1.72;100.00;101080.97;5032063;28;20025;-74
2022/02/16 02:56:00;;;;;;;97.23;26.83;;;;;;;1.88;100.00;101074.56;5030915;28;20028;-75
2022/02/16 02:58:26;;;;;;;69.47;24.50;;;;;;;1.92;100.00;101064.75;5032053;28;20033;-73
2022/02/16 03:00:51;;;;;;;106.97;25.70;;;;;;;2.01;100.00;101079.03;5013050;28;20061;-74
2022/02/16 03:03:17;;;;;;;119.40;25.70;;;;;;;1.99;100.00;101078.88;5032187;28;20022;-74
2022/02/16 03:05:42;;;;;;;117.50;26.30;;;;;;;2.08;100.00;101081.28;5014109;28;20025;-74
2022/02/16 03:08:08;;;;;;;142.23;24.93;;;;;;;2.06;100.00;101072.63;5032214;28;20100;-75
2022/02/16 03:10:33;;;;;;;125.17;24.73;;;;;;;2.00;100.00;101049.22;5031610;28;20030;-74
2022/02/16 03:12:58;;;;;;;56.07;24.77;;;;;;;2.01;100.00;101058.66;5031582;28;20053;-74
2022/02/16 03:15:24;;;;;;;64.10;22.63;;;;;;;2.05;100.00;101069.19;5031558;28;20072;-72
2022/02/16 03:17:49;;;;;;;87.87;24.07;;;;;;;2.17;100.00;101073.47;5031961;28;20029;-75
2022/02/16 03:20:15;;;;;;;88.97;21.37;;;;;;;2.09;100.00;101063.59;4996548;28;20056;-71
2022/02/16 03:22:41;;;;;;;92.67;22.23;;;;;;;2.23;100.00;101081.63;5031630;28;20049;-72
2022/02/16 03:25:08;;;;;;;124.50;22.97;;;;;;;2.34;100.00;101087.56;5031725;28;20026;-76
2022/02/16 03:27:34;;;;;;;129.53;23.83;;;;;;;2.41;100.00;101085.63;5031470;28;20471;-73
2022/02/16 03:30:00;;;;;;;116.60;23.50;;;;;;;2.31;100.00;101054.22;5031204;28;20040;-71
2022/02/16 03:32:26;;;;;;;74.20;21.80;;;;;;;2.42;100.00;101074.69;5031546;28;20031;-71
2022/02/16 03:34:52;;;;;;;76.93;20.70;;;;;;;2.20;100.00;101056.78;5031220;28;20399;-74
2022/02/16 03:37:17;;;;;;;95.43;21.57;;;;;;;2.32;100.00;101071.25;5013557;28;20040;-74
2022/02/16 03:39:44;;;;;;;128.97;24.10;;;;;;;2.38;100.00;101085.41;5031479;28;20029;-74
2022/02/16 03:42:09;;;;;;;44.87;19.40;;;;;;;2.00;100.00;101045.00;5031271;28;20040;-74
2022/02/16 03:44:35;;;;;;;64.73;23.63;;;;;;;1.98;100.00;101041.47;5031030;28;20042;-73
2022/02/16 03:47:01;;;;;;;122.13;24.33;;;;;;;2.28;100.00;101074.34;5031289;28;20041;-74
2022/02/16 03:49:27;;;;;;;96.77;23.63;;;;;;;2.25;100.00;101064.81;5031521;28;20092;-71
2022/02/16 03:51:52;;;;;;;40.73;18.63;;;;;;;2.15;100.00;101072.47;5031099;28;20026;-73
2022/02/16 03:54:18;;;;;;;56.00;20.80;;;;;;;2.05;100.00;101066.63;5030399;28;20029;-73
2022/02/16 03:56:44;;;;;;;102.37;21.23;;;;;;;2.00;100.00;101074.69;5030666;28;20032;-72
2022/02/16 03:59:10;;;;;;;96.73;22.83;;;;;;;1.97;100.00;101057.50;5030891;28;20120;-74
2022/02/16 04:01:36;;;;;;;93.40;21.70;;;;;;;2.00;100.00;101054.31;5030870;28;20460;-71
2022/02/16 04:04:02;;;;;;;67.93;20.83;;;;;;;1.91;100.00;101029.00;5030738;28;20021;-74
2022/02/16 04:06:28;;;;;;;38.57;18.10;;;;;;;2.04;100.00;101066.53;5030136;28;20036;-74
2022/02/16 04:08:53;;;;;;;57.20;17.97;;;;;;;1.89;100.00;101053.44;4995755;28;20034;-73
2022/02/16 04:11:20;;;;;;;99.33;21.93;;;;;;;1.90;100.00;101083.22;5030265;28;20443;-75
2022/02/16 04:13:47;;;;;;;73.10;20.80;;;;;;;1.66;100.00;101037.19;5030601;28;20036;-73
2022/02/16 04:16:13;;;;;;;42.40;18.07;;;;;;;1.89;100.00;101079.78;5030749;28;20061;-73
2022/02/16 04:18:39;;;;;;;45.87;18.67;;;;;;;1.86;100.00;101094.81;5030591;28;20060;-71
2022/02/16 04:21:04;;;;;;;52.70;17.10;;;;;;;1.84;100.00;101088.69;5030736;28;20018;-73
2022/02/16 04:23:30;;;;;;;46.93;17.83;;;;;;;1.50;100.00;101036.69;5030596;28;20558;-71
2022/02/16 04:25:55;;;;;;;42.57;20.10;;;;;;;1.68;100.00;101072.94;5030456;28;20397;-72
2022/02/16 04:28:21;;;;;;;48.03;18.90;;;;;;;1.60;100.00;101072.31;5030440;28;20030;-71
2022/02/16 04:30:48;;;;;;;41.90;18.30;;;;;;;1.33;100.00;101059.06;5030244;28;20065;-70
2022/02/16 04:33:14;;;;;;;55.13;20.00;;;;;;;1.36;100.00;101088.97;5030379;28;20036;-73
2022/02/16 04:35:39;;;;;;;47.63;18.50;;;;;;;0.19;100.00;100917.31;5012830;28;20029;-74
2022/02/16 04:38:05;;;;;;;42.93;17.67;;;;;;;1.17;100.00;101079.78;5030145;28;20021;-73
2022/02/16 04:40:30;;;;;;;49.30;19.00;;;;;;;1.09;100.00;101089.31;5029932;28;20116;-75
2022/02/16 04:42:56;;;;;;;46.07;17.77;;;;;;;1.04;100.00;101090.56;5029974;28;20048;-73
2022/02/16 04:45:21;;;;;;;54.60;17.07;;;;;;;1.00;100.00;101088.53;5030159;28;20052;-75
2022/02/16 04:47:47;;;;;;;36.23;17.40;;;;;;;0.85;100.00;101095.75;5030219;28;20538;-70
2022/02/16 04:50:13;;;;;;;50.10;17.10;;;;;;;0.62;100.00;101094.66;5029817;28;20033;-76
2022/02/16 04:52:38;;;;;;;68.97;20.80;;;;;;;0.61;100.00;101087.78;5030133;28;20076;-73
2022/02/16 04:55:06;;;;;;;61.77;21.97;;;;;;;0.73;100.00;101065.06;5029608;28;20065;-73
2022/02/16 04:57:32;;;;;;;57.80;21.30;;;;;;;1.16;100.00;101100.00;5012339;28;20044;-70
2022/02/16 04:59:59;;;;;;;91.43;21.63;;;;;;;1.21;100.00;101063.13;5029924;28;20029;-73
2022/02/16 05:02:27;;;;;;;54.50;21.30;;;;;;;1.57;100.00;101102.59;5029802;28;20036;-72
2022/02/16 05:04:53;;;;;;;46.13;21.63;;;;;;;1.65;100.00;101091.41;5029567;28;20025;-71
2022/02/16 05:07:20;;;;;;;48.70;20.60;;;;;;;1.60;100.00;101062.13;5030041;28;20029;-70
2022/02/16 05:09:45;;;;;;;42.57;19.03;;;;;;;2.00;100.00;101115.44;5011947;28;20021;-70
2022/02/16 05:12:11;;;;;;;63.13;20.37;;;;;;;1.78;100.00;101058.56;5029955;28;20401;-71
2022/02/16 05:14:37;;;;;;;42.43;18.03;;;;;;;2.01;100.00;101095.19;5030091;28;20033;-68
2022/02/16 05:17:03;;;;;;;47.37;17.37;;;;;;;1.86;100.00;101111.75;5029981;28;20029;-73
2022/02/16 05:19:28;;;;;;;39.20;18.53;;;;;;;1.81;100.00;101120.66;5029699;28;20032;-74
2022/02/16 05:21:54;;;;;;;44.80;20.20;;;;;;;1.45;100.00;101064.31;5029710;28;20032;-71
2022/02/16 05:24:20;;;;;;;48.53;19.50;;;;;;;1.47;100.00;101092.41;5011619;28;20060;-69
2022/02/16 05:26:46;;;;;;;49.20;20.63;;;;;;;1.44;100.00;101104.09;5028318;28;20037;-70
2022/02/16 05:29:11;;;;;;;47.53;18.63;;;;;;;1.32;100.00;101090.38;5010499;28;20026;-70
2022/02/16 05:31:37;;;;;;;45.60;20.00;;;;;;;1.30;100.00;101107.16;5010665;28;20120;-71
2022/02/16 05:34:02;;;;;;;59.60;20.70;;;;;;;1.19;100.00;101110.44;5017151;28;20472;-67
2022/02/16 05:36:28;;;;;;;49.63;20.97;;;;;;;0.89;100.00;101071.47;5029994;28;20068;-67
2022/02/16 05:38:54;;;;;;;50.43;19.77;;;;;;;0.64;100.00;101039.75;5030131;28;20025;-68
2022/02/16 05:41:19;;;;;;;47.40;18.20;;;;;;;0.63;100.00;101047.25;5030348;28;20464;-71
2022/02/16 05:43:45;;;;;;;49.40;17.53;;;;;;;0.98;100.00;101105.31;5030408;28;20483;-68
2022/02/16 05:46:10;;;;;;;61.80;19.80;;;;;;;0.90;100.00;101089.41;5030389;28;20033;-68
2022/02/16 05:48:36;;;;;;;58.17;18.27;;;;;;;0.82;100.00;101064.09;5030159;28;20419;-70
2022/02/16 05:51:01;;;;;;;66.87;21.70;;;;;;;1.05;100.00;101117.78;5012621;28;20507;-68
2022/02/16 05:53:27;;;;;;;47.57;17.97;;;;;;;1.16;100.00;101105.09;5030251;28;20538;-70
2022/02/16 05:55:52;;;;;;;53.70;19.93;;;;;;;1.08;100.00;101089.19;5029861;28;20406;-71
2022/02/16 05:58:18;;;;;;;57.77;18.17;;;;;;;1.15;100.00;101101.66;5029697;28;20475;-70
2022/02/16 06:00:44;;;;;;;75.90;21.20;;;;;;;1.18;100.00;101101.03;5029473;28;20029;-70
2022/02/16 06:03:09;;;;;;;64.93;19.80;;;;;;;1.26;100.00;101100.91;5029650;28;20029;-70
2022/02/16 06:05:35;;;;;;;77.50;21.37;;;;;;;1.54;100.00;101115.06;5029331;28;20464;-69
2022/02/16 06:08:01;;;;;;;72.40;22.87;;;;;;;1.66;100.00;101100.81;5029225;28;20452;-70
2022/02/16 06:10:26;;;;;;;63.40;20.50;;;;;;;1.72;100.00;101087.69;5029187;28;20032;-69
2022/02/16 06:12:52;;;;;;;99.00;22.70;;;;;;;1.80;100.00;101099.41;5011547;28;20050;-70
2022/02/16 06:15:17;;;;;;;49.83;20.33;;;;;;;1.80;100.00;101088.34;5029380;28;20171;-72
2022/02/16 06:17:43;;;;;;;77.37;20.30;;;;;;;1.92;100.00;101109.72;5031148;28;20412;-74
2022/02/16 06:20:09;;;;;;;47.07;16.93;;;;;;;1.93;100.00;101111.47;5033693;28;20107;-73
2022/02/16 06:22:34;;;;;;;58.83;19.53;;;;;;;1.89;100.00;101119.63;5033274;28;20025;-70
2022/02/16 06:25:00;;;;;;;54.73;18.37;;;;;;;1.90;100.00;101112.13;5033013;28;20882;-72
2022/02/16 06:27:25;;;;;;;58.77;17.27;;;;;;;1.91;100.00;101105.38;5029716;28;20036;-77
2022/02/16 06:29:51;;;;;;;56.50;19.40;;;;;;;1.54;100.00;101054.00;4999999;28;20475;-69
2022/02/16 06:32:16;;;;;;;51.20;19.10;;;;;;;1.56;100.00;101062.66;5033321;28;20145;-69
2022/02/16 06:34:42;;;;;;;54.87;19.07;;;;;;;1.84;100.00;101111.59;5032157;28;20399;-70
2022/02/16 06:37:07;;;;;;;46.70;16.37;;;;;;;1.57;100.00;101065.31;5032583;28;20155;-70
2022/02/16 06:39:33;;;;;;;37.70;15.73;;;;;;;1.90;100.00;101116.34;5033324;28;20091;-69
2022/02/16 06:41:58;;;;;;;41.90;17.40;;;;;;;1.78;100.00;101111.09;5032920;28;20484;-69
2022/02/16 06:44:23;;;;;;;51.80;20.33;;;;;;;1.86;100.00;101120.28;5032778;28;20551;-69
2022/02/16 06:46:49;;;;;;;36.50;15.97;;;;;;;1.90;100.00;101122.28;5047201;28;20376;-68
2022/02/16 06:49:15;;;;;;;40.80;18.27;;;;;;;1.95;100.00;101120.13;5052518;28;20044;-68
2022/02/16 06:51:42;;;;;;;39.13;15.33;;;;;;;1.93;100.00;101114.00;5013831;28;20033;-70
2022/02/16 06:54:07;;;;;;;30.80;16.77;;;;;;;1.58;100.00;101071.28;5032766;28;20068;-69
2022/02/16 06:56:33;;;;;;;42.93;17.70;;;;;;;1.83;100.00;101106.41;5032854;28;20453;-69
2022/02/16 06:58:58;;;;;;;42.67;16.87;;;;;;;1.91;100.00;101118.13;5032972;28;20107;-69
2022/02/16 07:01:24;;;;;;;41.37;17.03;;;;;;;1.70;100.00;101082.47;5042936;28;20037;-70
2022/02/16 07:03:49;;;;;;;49.67;16.37;;;;;;;1.72;100.00;101080.06;5051824;28;20027;-69
2022/02/16 07:06:15;;;;;;;41.70;14.87;;;;;;;1.86;100.00;101122.81;5051632;28;20546;-69
2022/02/16 07:08:40;;;;;;;29.23;12.37;;;;;;;1.65;100.00;101114.31;5051353;28;20028;-69
2022/02/16 07:11:05;;;;;;;43.07;13.10;;;;;;;1.51;100.00;101136.06;5051814;28;20040;-68
2022/02/16 07:13:31;;;;;;;99.00;50.90;;;;;;;1.57;100.00;101138.22;5052605;28;20048;-70
2022/02/16 07:15:56;;;;;;;70.53;29.37;;;;;;;1.29;100.00;101095.19;5052249;28;20033;-73
2022/02/16 07:18:22;;;;;;;43.17;16.73;;;;;;;1.43;100.00;101144.69;5050650;28;20033;-73
2022/02/16 07:20:48;;;;;;;59.47;15.60;;;;;;;1.15;100.00;101098.22;5051612;28;20032;-72
2022/02/16 07:23:14;;;;;;;49.83;18.67;;;;;;;1.56;100.00;101144.97;5051192;28;20054;-73
2022/02/16 07:25:40;;;;;;;55.00;17.47;;;;;;;1.52;100.00;101102.22;5051302;28;20044;-74
2022/02/16 07:28:06;;;;;;;57.23;26.93;;;;;;;1.78;100.00;101137.47;5052136;28;20029;-72
2022/02/16 07:30:32;;;;;;;48.00;19.13;;;;;;;1.83;100.00;101131.84;5052146;28;20415;-76
2022/02/16 07:32:58;;;;;;;47.23;19.83;;;;;;;1.75;100.00;101121.03;5051649;28;20040;-76
2022/02/16 07:35:24;;;;;;;58.10;21.83;;;;;;;1.76;100.00;101110.97;5033973;28;20551;-76
2022/02/16 07:37:51;;;;;;;40.93;20.27;;;;;;;1.83;100.00;101097.09;5051985;28;20111;-74
2022/02/16 07:40:17;;;;;;;45.50;16.87;;;;;;;1.90;100.00;101106.16;5034095;28;20036;-74
2022/02/16 07:42:43;;;;;;;49.70;21.07;;;;;;;1.89;100.00;101101.81;5051487;28;20523;-72
2022/02/16 07:45:09;;;;;;;49.60;19.10;;;;;;;1.72;100.00;101052.97;5051477;28;20029;-74
2022/02/16 07:47:35;;;;;;;38.33;16.43;;;;;;;1.90;100.00;101090.88;5051533;28;20108;-72
2022/02/16 07:50:01;;;;;;;43.23;17.07;;;;;;;1.85;100.00;101085.38;5051340;28;20108;-77
2022/02/16 07:52:27;;;;;;;74.70;40.17;;;;;;;2.05;100.00;101096.31;5051510;28;20033;-74
2022/02/16 07:54:53;;;;;;;60.13;23.10;;;;;;;2.09;100.00;101103.44;5009618;28;20053;-73
2022/02/16 07:57:19;;;;;;;47.37;18.77;;;;;;;1.97;100.00;101098.25;5009659;28;20149;-74
2022/02/16 07:59:44;;;;;;;54.83;22.97;;;;;;;2.05;100.00;101099.75;5009522;28;20042;-73
2022/02/16 08:02:10;;;;;;;48.30;19.10;;;;;;;2.19;100.00;101099.97;5009429;28;20030;-75
2022/02/16 08:04:35;;;;;;;55.80;19.77;;;;;;;2.15;100.00;101095.41;5009384;28;20563;-74
2022/02/16 08:07:01;;;;;;;49.67;22.50;;;;;;;2.22;100.00;101088.38;4993077;28;20041;-72
2022/02/16 08:09:28;;;;;;;61.63;22.30;;;;;;;2.31;100.00;101079.72;4992696;28;20072;-74
2022/02/16 08:11:54;;;;;;;48.47;20.53;;;;;;;2.60;100.00;101097.28;4989713;28;20104;-74
2022/02/16 08:14:20;;;;;;;42.03;17.20;;;;;;;2.52;100.00;101098.38;4989706;28;20125;-74
2022/02/16 08:16:45;;;;;;;55.67;20.23;;;;;;;2.35;100.00;101081.72;4989687;28;20520;-72
2022/02/16 08:19:11;;;;;;;64.60;19.63;;;;;;;2.60;100.00;101089.66;4973342;28;20070;-72
2022/02/16 08:21:40;;;;;;;42.97;17.60;;;;;;;2.66;100.00;101084.16;4989394;28;20153;-73
2022/02/16 08:24:06;;;;;;;48.10;20.63;;;;;;;2.50;100.00;101093.13;4989553;28;20034;-77
2022/02/16 08:26:32;;;;;;;48.47;17.97;;;;;;;2.42;100.00;101074.69;5006449;28;20053;-74
2022/02/16 08:28:58;;;;;;;46.20;17.77;;;;;;;2.37;100.00;101073.44;5011405;28;20029;-76
2022/02/16 08:31:23;;;;;;;44.60;18.57;;;;;;;2.31;100.00;101083.13;5029053;28;20034;-74
2022/02/16 08:33:49;;;;;;;53.50;20.97;;;;;;;2.41;100.00;101080.53;5031312;28;20033;-77
2022/02/16 08:36:15;;;;;;;62.90;21.87;;;;;;;2.56;100.00;101074.88;5031234;28;20537;-75
2022/02/16 08:38:41;;;;;;;51.57;21.73;;;;;;;2.70;100.00;101083.63;5027645;28;20103;-76
2022/02/16 08:41:07;;;;;;;51.27;18.47;;;;;;;2.51;100.00;101066.88;5019813;28;20033;-76
2022/02/16 08:43:33;;;;;;;45.13;18.63;;;;;;;2.55;100.00;101078.19;5011456;28;20503;-76
2022/02/16 08:45:59;;;;;;;59.80;21.23;;;;;;;2.50;100.00;101080.38;5008036;28;20061;-75
2022/02/16 08:48:26;;;;;;;46.23;18.50;;;;;;;2.47;100.00;101056.31;5011497;28;20096;-76
2022/02/16 08:50:53;;;;;;;38.47;15.43;;;;;;;2.62;100.00;101077.91;4993628;28;20470;-76
2022/02/16 08:53:18;;;;;;;48.97;19.17;;;;;;;2.14;100.00;101007.03;5011201;28;20037;-73
2022/02/16 08:55:44;;;;;;;47.63;19.40;;;;;;;2.37;100.00;101057.25;5019072;28;20108;-77
2022/02/16 08:58:09;;;;;;;45.77;19.20;;;;;;;2.37;100.00;101060.69;5012864;28;20033;-71
2022/02/16 09:00:39;;;;;;;42.00;19.63;;;;;;;2.51;100.00;101045.59;5015884;28;20025;-74
2022/02/16 09:03:05;;;;;;;47.38;20.75;;;;;;;2.46;100.00;101026.50;4993486;28;20034;-74
2022/02/16 09:05:31;;;;;;;43.30;19.37;;;;;;;2.61;100.00;101030.25;5010754;28;20032;-71
2022/02/16 09:07:57;;;;;;;44.40;20.50;;;;;;;2.66;100.00;101035.72;5011153;28;20105;-72
2022/02/16 09:10:22;;;;;;;44.20;18.57;;;;;;;2.62;100.00;101041.31;5009630;28;20530;-72
2022/02/16 09:12:48;;;;;;;40.33;19.67;;;;;;;2.58;100.00;101037.66;5010942;28;20054;-73
2022/02/16 09:15:13;;;;;;;45.63;20.40;;;;;;;2.52;100.00;100998.97;5011596;28;20042;-71
2022/02/16 09:17:39;;;;;;;39.13;21.25;;;;;;;2.93;100.00;101044.59;5030434;28;20033;-72
2022/02/16 09:20:05;;;;;;;43.38;20.63;;;;;;;3.09;100.00;101056.88;5011956;28;20515;-71
2022/02/16 09:22:31;;;;;;;43.47;21.70;;;;;;;3.04;100.00;101053.06;4995415;28;20128;-72
2022/02/16 09:24:57;;;;;;;38.80;21.00;;;;;;;2.74;100.00;101015.13;5030534;28;20411;-74
2022/02/16 09:27:23;;;;;;;45.15;23.33;;;;;;;2.96;100.00;101052.47;5030693;28;20575;-71
2022/02/16 09:29:49;;;;;;;52.97;22.70;;;;;;;2.85;100.00;101010.84;5030152;28;20801;-72
2022/02/16 09:32:16;;;;;;;47.07;22.80;;;;;;;3.17;100.00;101049.81;5025541;28;20117;-73
2022/02/16 09:34:43;;;;;;;50.03;25.07;;;;;;;3.08;100.00;101045.78;5010844;28;20030;-72
2022/02/16 09:37:08;;;;;;;51.63;24.05;;;;;;;2.92;100.00;101033.50;5009532;28;20033;-71
2022/02/16 09:39:34;;;;;;;54.83;26.10;;;;;;;2.74;100.00;100991.28;5031025;28;20040;-70
2022/02/16 09:42:00;;;;;;;59.13;26.13;;;;;;;2.90;100.00;101004.47;5045276;28;20037;-69
2022/02/16 09:44:35;;;;;;;53.30;25.50;;;;;;;3.03;100.00;101028.34;5049374;28;20044;-72
2022/02/16 09:47:02;;;;;;;62.78;27.77;;;;;;;2.94;100.00;101007.22;5048628;28;20079;-67
2022/02/16 09:49:27;;;;;;;69.15;32.55;;;;;;;2.83;100.00;100966.50;5049152;28;20032;-67
2022/02/16 09:51:53;;;;;;;67.93;32.22;;;;;;;3.17;100.00;101017.50;5049803;28;20029;-67
2022/02/16 09:54:19;;;;;;;61.50;31.52;;;;;;;3.32;100.00;101010.13;5053822;28;20055;-69
2022/02/16 09:56:44;;;;;;;62.97;30.00;;;;;;;3.47;100.00;101004.38;5053001;28;20082;-70
2022/02/16 09:59:11;;;;;;;63.17;29.02;;;;;;;3.63;100.00;101004.72;5053129;28;20036;-72
2022/02/16 10:02:00;;;;;;;53.78;27.60;;;;;;;3.79;100.00;100993.06;5019645;28;20046;-70
2022/02/16 10:04:27;;;;;;;50.95;26.80;;;;;;;3.82;100.00;100988.19;5018550;28;20029;-75
2022/02/16 10:06:54;;;;;;;49.92;26.45;;;;;;;3.96;100.00;100997.75;5031582;28;20026;-71
2022/02/16 10:09:28;;;;;;;53.95;27.20;;;;;;;4.09;100.00;100989.28;5051348;28;20021;-70
2022/02/16 10:11:57;;;;;;;53.67;30.30;;;;;;;3.80;100.00;100936.13;5048031;28;20049;-71
2022/02/16 10:14:26;;;;;;;73.97;40.58;;;;;;;4.08;100.00;100963.66;5051824;28;20080;-72
2022/02/16 10:16:51;;;;;;;57.07;27.07;;;;;;;4.18;100.00;100974.59;5051962;28;20025;-70
2022/02/16 10:19:18;;;;;;;52.17;28.08;;;;;;;4.12;100.00;100935.84;5052395;28;20031;-69
2022/02/16 10:22:07;;;;;;;52.30;27.27;;;;;;;4.41;100.00;100966.78;5033251;28;20098;-70
2022/02/16 10:24:35;;;;;;;45.67;23.70;;;;;;;4.40;100.00;100955.69;5050868;28;20398;-70
2022/02/16 10:27:01;;;;;;;46.53;24.05;;;;;;;4.46;100.00;100955.19;5042234;28;20086;-70
2022/02/16 10:29:34;;;;;;;44.28;24.08;;;;;;;4.47;100.00;100946.75;5043862;28;20037;-71
2022/02/16 10:32:01;;;;;;;46.05;24.77;;;;;;;4.35;100.00;100941.69;5043590;28;20466;-69
2022/02/16 10:34:55;;;;;;;51.80;28.85;;;;;;;4.46;100.00;100947.53;5051077;28;20029;-69
2022/02/16 10:37:29;;;;;;;49.38;28.02;;;;;;;4.32;100.00;100895.47;5046499;28;20025;-71
2022/02/16 10:40:16;;;;;;;49.55;26.40;;;;;;;4.43;100.00;100940.53;5052243;28;20064;-69
2022/02/16 10:42:54;;;;;;;60.38;30.65;;;;;;;4.40;100.00;100934.31;5052273;28;20025;-69
2022/02/16 10:45:23;;;;;;;50.70;27.80;;;;;;;4.44;100.00;100923.56;5043621;28;20033;-72
2022/02/16 10:47:54;;;;;;;48.13;26.90;;;;;;;4.67;100.00;100926.00;5018919;28;20025;-72
2022/02/16 10:50:22;;;;;;;52.95;27.08;;;;;;;4.79;100.00;100910.59;5023568;28;20030;-71
2022/02/16 10:52:53;;;;;;;42.60;24.15;;;;;;;4.68;100.00;100860.38;5027932;28;20124;-70
2022/02/16 10:55:20;;;;;;;31.33;20.52;;;;;;;4.91;100.00;100900.31;5029453;28;20026;-71
2022/02/16 10:57:45;;;;;;;34.33;21.50;;;;;;;4.77;100.00;100901.94;5035976;28;20133;-72
2022/02/16 11:00:13;;;;;;;38.95;22.75;;;;;;;4.81;100.00;100897.91;5013019;28;20030;-72
2022/02/16 11:02:40;;;;;;;53.65;27.98;;;;;;;4.88;100.00;100879.63;4977893;28;20045;-72
2022/02/16 11:05:09;;;;;;;51.83;28.63;;;;;;;4.75;100.00;100861.66;5012270;28;20113;-69